sensor_id;sensor_type;location;lat;lon;timestamp;temperature;humidity
81895;DHT22;71358;45.642;13.758;2023-10-09T00:00:16;25.80;59.20
81895;DHT22;71358;45.642;13.758;2023-10-09T00:03:19;25.90;59.20
81895;DHT22;71358;45.642;13.758;2023-10-09T00:06:07;25.80;59.20
81895;DHT22;71358;45.642;13.758;2023-10-09T00:08:52;25.80;59.20
81895;DHT22;71358;45.642;13.758;2023-10-09T00:11:39;25.80;59.20
81895;DHT22;71358;45.642;13.758;2023-10-09T00:14:31;25.80;59.20
81895;DHT22;71358;45.642;13.758;2023-10-09T00:17:23;25.80;59.20
81895;DHT22;71358;45.642;13.758;2023-10-09T00:20:08;25.80;59.20
81895;DHT22;71358;45.642;13.758;2023-10-09T00:23:04;25.80;59.10
81895;DHT22;71358;45.642;13.758;2023-10-09T00:25:56;25.80;59.10
81895;DHT22;71358;45.642;13.758;2023-10-09T00:29:05;25.80;59.10
81895;DHT22;71358;45.642;13.758;2023-10-09T00:31:51;25.80;59.10
81895;DHT22;71358;45.642;13.758;2023-10-09T00:34:40;25.80;59.00
81895;DHT22;71358;45.642;13.758;2023-10-09T00:37:24;25.80;58.90
81895;DHT22;71358;45.642;13.758;2023-10-09T00:40:18;25.80;58.90
81895;DHT22;71358;45.642;13.758;2023-10-09T00:43:12;25.80;58.90
81895;DHT22;71358;45.642;13.758;2023-10-09T00:45:59;25.80;58.90
81895;DHT22;71358;45.642;13.758;2023-10-09T00:49:04;25.80;58.80
81895;DHT22;71358;45.642;13.758;2023-10-09T00:51:54;25.80;58.70
81895;DHT22;71358;45.642;13.758;2023-10-09T00:54:40;25.80;58.70
81895;DHT22;71358;45.642;13.758;2023-10-09T00:57:26;25.80;58.70
81895;DHT22;71358;45.642;13.758;2023-10-09T01:00:11;25.80;58.70
81895;DHT22;71358;45.642;13.758;2023-10-09T01:03:17;25.80;58.70
81895;DHT22;71358;45.642;13.758;2023-10-09T01:06:03;25.80;58.60
81895;DHT22;71358;45.642;13.758;2023-10-09T01:09:00;25.80;58.60
81895;DHT22;71358;45.642;13.758;2023-10-09T01:11:53;25.80;58.60
81895;DHT22;71358;45.642;13.758;2023-10-09T01:14:44;25.80;58.60
81895;DHT22;71358;45.642;13.758;2023-10-09T01:17:28;25.80;58.60
81895;DHT22;71358;45.642;13.758;2023-10-09T01:20:29;25.80;58.60
81895;DHT22;71358;45.642;13.758;2023-10-09T01:23:20;25.80;58.50
81895;DHT22;71358;45.642;13.758;2023-10-09T01:26:05;25.80;58.50
81895;DHT22;71358;45.642;13.758;2023-10-09T01:28:49;25.80;58.40
81895;DHT22;71358;45.642;13.758;2023-10-09T01:31:34;25.80;58.40
81895;DHT22;71358;45.642;13.758;2023-10-09T01:34:23;25.80;58.40
81895;DHT22;71358;45.642;13.758;2023-10-09T01:37:22;25.80;58.30
81895;DHT22;71358;45.642;13.758;2023-10-09T01:40:07;25.80;58.30
81895;DHT22;71358;45.642;13.758;2023-10-09T01:43:19;25.80;58.20
81895;DHT22;71358;45.642;13.758;2023-10-09T01:46:05;25.80;58.20
81895;DHT22;71358;45.642;13.758;2023-10-09T01:48:50;25.80;58.20
81895;DHT22;71358;45.642;13.758;2023-10-09T01:51:34;25.80;58.20
81895;DHT22;71358;45.642;13.758;2023-10-09T01:54:20;25.70;58.10
81895;DHT22;71358;45.642;13.758;2023-10-09T01:57:24;25.70;58.00
81895;DHT22;71358;45.642;13.758;2023-10-09T02:00:09;25.70;58.00
81895;DHT22;71358;45.642;13.758;2023-10-09T02:03:00;25.70;57.90
81895;DHT22;71358;45.642;13.758;2023-10-09T02:05:49;25.70;58.50
81895;DHT22;71358;45.642;13.758;2023-10-09T02:08:54;25.70;57.80
81895;DHT22;71358;45.642;13.758;2023-10-09T02:11:40;25.70;57.70
81895;DHT22;71358;45.642;13.758;2023-10-09T02:14:25;25.70;57.60
81895;DHT22;71358;45.642;13.758;2023-10-09T02:17:10;25.70;57.60
81895;DHT22;71358;45.642;13.758;2023-10-09T02:20:21;25.70;57.50
81895;DHT22;71358;45.642;13.758;2023-10-09T02:23:13;25.70;57.50
81895;DHT22;71358;45.642;13.758;2023-10-09T02:26:00;25.70;57.40
81895;DHT22;71358;45.642;13.758;2023-10-09T02:28:47;25.70;57.30
81895;DHT22;71358;45.642;13.758;2023-10-09T02:31:37;25.70;57.30
81895;DHT22;71358;45.642;13.758;2023-10-09T02:34:24;25.70;57.20
81895;DHT22;71358;45.642;13.758;2023-10-09T02:37:12;25.70;57.10
81895;DHT22;71358;45.642;13.758;2023-10-09T02:39:57;25.70;57.10
81895;DHT22;71358;45.642;13.758;2023-10-09T02:42:46;25.70;57.00
81895;DHT22;71358;45.642;13.758;2023-10-09T02:45:31;25.70;57.00
81895;DHT22;71358;45.642;13.758;2023-10-09T02:48:20;25.70;56.90
81895;DHT22;71358;45.642;13.758;2023-10-09T02:51:05;25.70;57.50
81895;DHT22;71358;45.642;13.758;2023-10-09T02:53:49;25.70;56.90
81895;DHT22;71358;45.642;13.758;2023-10-09T02:56:35;25.70;56.70
81895;DHT22;71358;45.642;13.758;2023-10-09T02:59:31;25.70;56.70
81895;DHT22;71358;45.642;13.758;2023-10-09T03:02:16;25.70;56.60
81895;DHT22;71358;45.642;13.758;2023-10-09T03:05:00;25.70;56.60
81895;DHT22;71358;45.642;13.758;2023-10-09T03:07:47;25.70;56.60
81895;DHT22;71358;45.642;13.758;2023-10-09T03:10:33;25.60;56.50
81895;DHT22;71358;45.642;13.758;2023-10-09T03:13:18;25.70;56.50
81895;DHT22;71358;45.642;13.758;2023-10-09T03:16:03;25.70;56.50
81895;DHT22;71358;45.642;13.758;2023-10-09T03:18:52;25.70;56.40
81895;DHT22;71358;45.642;13.758;2023-10-09T03:21:37;25.70;56.30
81895;DHT22;71358;45.642;13.758;2023-10-09T03:24:21;25.60;56.20
81895;DHT22;71358;45.642;13.758;2023-10-09T03:27:07;25.60;56.20
81895;DHT22;71358;45.642;13.758;2023-10-09T03:29:51;25.60;56.10
81895;DHT22;71358;45.642;13.758;2023-10-09T03:32:37;25.60;56.10
81895;DHT22;71358;45.642;13.758;2023-10-09T03:35:23;25.60;56.10
81895;DHT22;71358;45.642;13.758;2023-10-09T03:38:18;25.60;56.00
81895;DHT22;71358;45.642;13.758;2023-10-09T03:41:04;25.60;56.00
81895;DHT22;71358;45.642;13.758;2023-10-09T03:43:49;25.60;55.90
81895;DHT22;71358;45.642;13.758;2023-10-09T03:46:34;25.60;55.90
81895;DHT22;71358;45.642;13.758;2023-10-09T03:49:20;25.60;55.80
81895;DHT22;71358;45.642;13.758;2023-10-09T03:52:10;25.60;56.20
81895;DHT22;71358;45.642;13.758;2023-10-09T03:54:56;25.60;55.80
81895;DHT22;71358;45.642;13.758;2023-10-09T03:57:40;25.60;55.70
81895;DHT22;71358;45.642;13.758;2023-10-09T04:00:28;25.60;55.70
81895;DHT22;71358;45.642;13.758;2023-10-09T04:03:12;25.60;55.60
81895;DHT22;71358;45.642;13.758;2023-10-09T04:05:58;25.60;55.60
81895;DHT22;71358;45.642;13.758;2023-10-09T04:08:44;25.60;55.50
81895;DHT22;71358;45.642;13.758;2023-10-09T04:11:32;25.60;55.50
81895;DHT22;71358;45.642;13.758;2023-10-09T04:14:17;25.60;55.50
81895;DHT22;71358;45.642;13.758;2023-10-09T04:17:16;25.60;55.50
81895;DHT22;71358;45.642;13.758;2023-10-09T04:20:18;25.60;55.40
81895;DHT22;71358;45.642;13.758;2023-10-09T04:23:03;25.60;56.00
81895;DHT22;71358;45.642;13.758;2023-10-09T04:25:50;25.60;55.30
81895;DHT22;71358;45.642;13.758;2023-10-09T04:28:35;25.60;55.40
81895;DHT22;71358;45.642;13.758;2023-10-09T04:31:20;25.60;55.30
81895;DHT22;71358;45.642;13.758;2023-10-09T04:34:06;25.60;55.20
81895;DHT22;71358;45.642;13.758;2023-10-09T04:37:06;25.60;55.20
81895;DHT22;71358;45.642;13.758;2023-10-09T04:39:59;25.60;55.10
81895;DHT22;71358;45.642;13.758;2023-10-09T04:42:56;25.60;55.10
81895;DHT22;71358;45.642;13.758;2023-10-09T04:45:43;25.60;55.20
81895;DHT22;71358;45.642;13.758;2023-10-09T04:48:45;25.60;55.10
81895;DHT22;71358;45.642;13.758;2023-10-09T04:51:30;25.60;55.10
81895;DHT22;71358;45.642;13.758;2023-10-09T04:54:20;25.60;55.10
81895;DHT22;71358;45.642;13.758;2023-10-09T04:57:23;25.60;55.10
81895;DHT22;71358;45.642;13.758;2023-10-09T05:00:11;25.60;55.10
81895;DHT22;71358;45.642;13.758;2023-10-09T05:03:10;25.60;55.00
81895;DHT22;71358;45.642;13.758;2023-10-09T05:05:56;25.60;55.00
81895;DHT22;71358;45.642;13.758;2023-10-09T05:08:44;25.60;55.00
81895;DHT22;71358;45.642;13.758;2023-10-09T05:11:30;25.60;54.90
81895;DHT22;71358;45.642;13.758;2023-10-09T05:14:32;25.60;54.90
81895;DHT22;71358;45.642;13.758;2023-10-09T05:17:23;25.60;54.90
81895;DHT22;71358;45.642;13.758;2023-10-09T05:20:10;25.60;54.90
81895;DHT22;71358;45.642;13.758;2023-10-09T05:23:09;25.60;54.90
81895;DHT22;71358;45.642;13.758;2023-10-09T05:26:19;25.50;54.80
81895;DHT22;71358;45.642;13.758;2023-10-09T05:29:33;25.60;54.90
81895;DHT22;71358;45.642;13.758;2023-10-09T05:32:17;25.50;54.80
81895;DHT22;71358;45.642;13.758;2023-10-09T05:35:12;25.50;54.80
81895;DHT22;71358;45.642;13.758;2023-10-09T05:37:59;25.60;54.80
81895;DHT22;71358;45.642;13.758;2023-10-09T05:40:48;25.50;54.70
81895;DHT22;71358;45.642;13.758;2023-10-09T05:43:37;25.60;54.80
81895;DHT22;71358;45.642;13.758;2023-10-09T05:46:41;25.60;54.70
81895;DHT22;71358;45.642;13.758;2023-10-09T05:49:45;25.60;54.80
81895;DHT22;71358;45.642;13.758;2023-10-09T05:52:47;25.50;54.70
81895;DHT22;71358;45.642;13.758;2023-10-09T05:55:37;25.60;54.70
81895;DHT22;71358;45.642;13.758;2023-10-09T05:58:41;25.50;54.60
81895;DHT22;71358;45.642;13.758;2023-10-09T06:01:44;25.60;54.60
81895;DHT22;71358;45.642;13.758;2023-10-09T06:04:46;25.60;54.70
81895;DHT22;71358;45.642;13.758;2023-10-09T06:07:38;25.50;54.70
81895;DHT22;71358;45.642;13.758;2023-10-09T06:10:45;25.60;55.00
81895;DHT22;71358;45.642;13.758;2023-10-09T06:13:34;25.60;55.20
81895;DHT22;71358;45.642;13.758;2023-10-09T06:16:22;25.60;55.40
81895;DHT22;71358;45.642;13.758;2023-10-09T06:19:26;25.60;55.50
81895;DHT22;71358;45.642;13.758;2023-10-09T06:22:11;25.60;55.40
81895;DHT22;71358;45.642;13.758;2023-10-09T06:25:14;25.60;55.20
81895;DHT22;71358;45.642;13.758;2023-10-09T06:28:02;25.50;54.30
81895;DHT22;71358;45.642;13.758;2023-10-09T06:30:47;25.50;54.00
81895;DHT22;71358;45.642;13.758;2023-10-09T06:33:31;25.50;53.80
81895;DHT22;71358;45.642;13.758;2023-10-09T06:36:36;25.40;53.50
81895;DHT22;71358;45.642;13.758;2023-10-09T06:39:30;25.40;53.40
81895;DHT22;71358;45.642;13.758;2023-10-09T06:42:33;25.40;53.40
81895;DHT22;71358;45.642;13.758;2023-10-09T06:45:17;25.30;53.40
81895;DHT22;71358;45.642;13.758;2023-10-09T06:48:03;25.30;53.40
81895;DHT22;71358;45.642;13.758;2023-10-09T06:51:10;25.30;53.30
81895;DHT22;71358;45.642;13.758;2023-10-09T06:54:10;25.30;53.40
81895;DHT22;71358;45.642;13.758;2023-10-09T06:56:59;25.30;53.60
81895;DHT22;71358;45.642;13.758;2023-10-09T07:00:02;25.30;53.60
81895;DHT22;71358;45.642;13.758;2023-10-09T07:03:16;25.30;53.50
81895;DHT22;71358;45.642;13.758;2023-10-09T07:06:08;25.30;53.80
81895;DHT22;71358;45.642;13.758;2023-10-09T07:09:08;25.30;53.60
81895;DHT22;71358;45.642;13.758;2023-10-09T07:11:52;25.30;53.40
81895;DHT22;71358;45.642;13.758;2023-10-09T07:14:37;25.20;53.40
81895;DHT22;71358;45.642;13.758;2023-10-09T07:17:21;25.30;53.40
81895;DHT22;71358;45.642;13.758;2023-10-09T07:20:06;25.20;53.40
81895;DHT22;71358;45.642;13.758;2023-10-09T07:23:14;25.20;53.40
81895;DHT22;71358;45.642;13.758;2023-10-09T07:26:03;25.20;53.40
81895;DHT22;71358;45.642;13.758;2023-10-09T07:29:03;25.20;53.50
81895;DHT22;71358;45.642;13.758;2023-10-09T07:32:00;25.20;53.60
81895;DHT22;71358;45.642;13.758;2023-10-09T07:34:56;25.20;53.60
81895;DHT22;71358;45.642;13.758;2023-10-09T07:37:43;25.30;53.50
81895;DHT22;71358;45.642;13.758;2023-10-09T07:40:28;25.30;53.50
81895;DHT22;71358;45.642;13.758;2023-10-09T07:43:16;25.30;53.40
81895;DHT22;71358;45.642;13.758;2023-10-09T07:46:02;25.30;53.20
81895;DHT22;71358;45.642;13.758;2023-10-09T07:48:50;25.40;53.10
81895;DHT22;71358;45.642;13.758;2023-10-09T07:51:38;25.40;53.20
81895;DHT22;71358;45.642;13.758;2023-10-09T07:54:23;25.50;53.10
81895;DHT22;71358;45.642;13.758;2023-10-09T07:57:17;25.50;52.90
81895;DHT22;71358;45.642;13.758;2023-10-09T08:00:01;25.50;52.90
81895;DHT22;71358;45.642;13.758;2023-10-09T08:02:56;25.50;53.00
81895;DHT22;71358;45.642;13.758;2023-10-09T08:05:44;25.60;53.10
81895;DHT22;71358;45.642;13.758;2023-10-09T08:08:29;25.60;53.10
81895;DHT22;71358;45.642;13.758;2023-10-09T08:11:13;25.60;53.00
81895;DHT22;71358;45.642;13.758;2023-10-09T08:14:23;25.60;53.00
81895;DHT22;71358;45.642;13.758;2023-10-09T08:17:17;25.60;53.00
81895;DHT22;71358;45.642;13.758;2023-10-09T08:20:05;25.70;53.20
81895;DHT22;71358;45.642;13.758;2023-10-09T08:22:56;25.70;53.40
81895;DHT22;71358;45.642;13.758;2023-10-09T08:25:40;25.60;53.80
81895;DHT22;71358;45.642;13.758;2023-10-09T08:28:42;25.60;54.10
81895;DHT22;71358;45.642;13.758;2023-10-09T08:31:29;25.60;54.20
81895;DHT22;71358;45.642;13.758;2023-10-09T08:34:29;25.60;54.60
81895;DHT22;71358;45.642;13.758;2023-10-09T08:37:19;25.60;55.20
81895;DHT22;71358;45.642;13.758;2023-10-09T08:40:09;25.60;55.80
81895;DHT22;71358;45.642;13.758;2023-10-09T08:42:54;25.60;56.10
81895;DHT22;71358;45.642;13.758;2023-10-09T08:45:41;25.60;56.40
81895;DHT22;71358;45.642;13.758;2023-10-09T08:48:28;25.60;56.60
81895;DHT22;71358;45.642;13.758;2023-10-09T08:51:14;25.60;56.30
81895;DHT22;71358;45.642;13.758;2023-10-09T08:54:01;25.60;55.80
81895;DHT22;71358;45.642;13.758;2023-10-09T08:56:46;25.60;56.30
81895;DHT22;71358;45.642;13.758;2023-10-09T08:59:41;25.60;56.50
81895;DHT22;71358;45.642;13.758;2023-10-09T09:02:26;25.60;56.50
81895;DHT22;71358;45.642;13.758;2023-10-09T09:05:17;25.60;57.10
81895;DHT22;71358;45.642;13.758;2023-10-09T09:08:24;25.60;57.60
81895;DHT22;71358;45.642;13.758;2023-10-09T09:11:11;25.60;57.60
81895;DHT22;71358;45.642;13.758;2023-10-09T09:14:07;25.60;57.40
81895;DHT22;71358;45.642;13.758;2023-10-09T09:17:02;25.60;57.60
81895;DHT22;71358;45.642;13.758;2023-10-09T09:19:48;25.50;57.90
81895;DHT22;71358;45.642;13.758;2023-10-09T09:22:55;25.50;58.20
81895;DHT22;71358;45.642;13.758;2023-10-09T09:25:44;25.50;58.40
81895;DHT22;71358;45.642;13.758;2023-10-09T09:28:29;25.50;58.60
81895;DHT22;71358;45.642;13.758;2023-10-09T09:31:23;25.50;58.70
81895;DHT22;71358;45.642;13.758;2023-10-09T09:34:08;25.50;58.50
81895;DHT22;71358;45.642;13.758;2023-10-09T09:36:58;25.60;58.30
81895;DHT22;71358;45.642;13.758;2023-10-09T09:39:43;25.60;58.70
81895;DHT22;71358;45.642;13.758;2023-10-09T09:42:28;25.60;58.90
81895;DHT22;71358;45.642;13.758;2023-10-09T09:45:15;25.60;59.10
81895;DHT22;71358;45.642;13.758;2023-10-09T09:48:02;25.60;59.20
81895;DHT22;71358;45.642;13.758;2023-10-09T09:50:52;25.60;59.30
81895;DHT22;71358;45.642;13.758;2023-10-09T09:53:38;25.60;59.40
81895;DHT22;71358;45.642;13.758;2023-10-09T09:56:25;25.60;59.50
81895;DHT22;71358;45.642;13.758;2023-10-09T09:59:10;25.60;59.70
81895;DHT22;71358;45.642;13.758;2023-10-09T10:02:05;25.60;59.80
81895;DHT22;71358;45.642;13.758;2023-10-09T10:04:54;25.60;60.00
81895;DHT22;71358;45.642;13.758;2023-10-09T10:07:40;25.50;60.20
81895;DHT22;71358;45.642;13.758;2023-10-09T10:10:34;25.50;60.50
81895;DHT22;71358;45.642;13.758;2023-10-09T10:16:25;25.50;61.40
81895;DHT22;71358;45.642;13.758;2023-10-09T10:19:18;25.50;61.80
81895;DHT22;71358;45.642;13.758;2023-10-09T10:22:23;25.50;62.20
81895;DHT22;71358;45.642;13.758;2023-10-09T10:28:26;25.50;62.80
81895;DHT22;71358;45.642;13.758;2023-10-09T10:31:52;25.50;63.00
81895;DHT22;71358;45.642;13.758;2023-10-09T10:34:54;25.50;63.30
81895;DHT22;71358;45.642;13.758;2023-10-09T10:37:41;25.40;63.60
81895;DHT22;71358;45.642;13.758;2023-10-09T10:40:34;25.40;64.00
81895;DHT22;71358;45.642;13.758;2023-10-09T10:43:30;25.30;64.30
81895;DHT22;71358;45.642;13.758;2023-10-09T10:46:33;25.30;64.70
81895;DHT22;71358;45.642;13.758;2023-10-09T10:49:27;25.30;65.00
81895;DHT22;71358;45.642;13.758;2023-10-09T10:52:22;25.30;65.40
81895;DHT22;71358;45.642;13.758;2023-10-09T10:55:08;25.30;65.70
81895;DHT22;71358;45.642;13.758;2023-10-09T10:58:02;25.20;66.00
81895;DHT22;71358;45.642;13.758;2023-10-09T11:00:54;25.20;66.40
81895;DHT22;71358;45.642;13.758;2023-10-09T11:03:42;25.20;66.60
81895;DHT22;71358;45.642;13.758;2023-10-09T11:06:42;25.20;66.90
81895;DHT22;71358;45.642;13.758;2023-10-09T11:09:27;25.10;67.30
81895;DHT22;71358;45.642;13.758;2023-10-09T11:12:20;25.10;67.60
81895;DHT22;71358;45.642;13.758;2023-10-09T11:15:14;25.10;67.80
81895;DHT22;71358;45.642;13.758;2023-10-09T11:18:06;25.10;68.00
81895;DHT22;71358;45.642;13.758;2023-10-09T11:21:14;25.10;68.20
81895;DHT22;71358;45.642;13.758;2023-10-09T11:23:59;25.10;68.50
81895;DHT22;71358;45.642;13.758;2023-10-09T11:27:05;25.10;68.70
81895;DHT22;71358;45.642;13.758;2023-10-09T11:29:51;25.10;68.80
81895;DHT22;71358;45.642;13.758;2023-10-09T11:32:36;25.10;69.00
81895;DHT22;71358;45.642;13.758;2023-10-09T11:35:22;25.10;69.10
81895;DHT22;71358;45.642;13.758;2023-10-09T11:38:18;25.10;69.20
81895;DHT22;71358;45.642;13.758;2023-10-09T11:41:15;25.10;69.30
81895;DHT22;71358;45.642;13.758;2023-10-09T11:44:03;25.10;69.50
81895;DHT22;71358;45.642;13.758;2023-10-09T11:46:59;25.10;69.70
81895;DHT22;71358;45.642;13.758;2023-10-09T11:50:02;25.10;69.80
81895;DHT22;71358;45.642;13.758;2023-10-09T11:52:57;25.10;69.90
81895;DHT22;71358;45.642;13.758;2023-10-09T11:56:01;25.10;70.20
81895;DHT22;71358;45.642;13.758;2023-10-09T11:58:47;25.10;70.40
81895;DHT22;71358;45.642;13.758;2023-10-09T12:01:35;25.10;70.50
81895;DHT22;71358;45.642;13.758;2023-10-09T12:04:21;25.10;70.80
81895;DHT22;71358;45.642;13.758;2023-10-09T12:07:14;25.10;70.80
81895;DHT22;71358;45.642;13.758;2023-10-09T12:09:58;25.10;71.10
81895;DHT22;71358;45.642;13.758;2023-10-09T12:12:43;25.10;71.30
81895;DHT22;71358;45.642;13.758;2023-10-09T12:15:31;25.10;71.40
81895;DHT22;71358;45.642;13.758;2023-10-09T12:18:22;25.10;71.60
81895;DHT22;71358;45.642;13.758;2023-10-09T12:21:08;25.00;71.70
81895;DHT22;71358;45.642;13.758;2023-10-09T12:23:59;25.00;72.20
81895;DHT22;71358;45.642;13.758;2023-10-09T12:26:44;25.10;72.00
81895;DHT22;71358;45.642;13.758;2023-10-09T12:29:30;25.00;72.10
81895;DHT22;71358;45.642;13.758;2023-10-09T12:32:14;25.10;72.20
81895;DHT22;71358;45.642;13.758;2023-10-09T12:35:04;25.10;72.10
81895;DHT22;71358;45.642;13.758;2023-10-09T12:38:00;25.00;72.20
81895;DHT22;71358;45.642;13.758;2023-10-09T12:40:45;25.00;72.40
81895;DHT22;71358;45.642;13.758;2023-10-09T12:43:36;25.00;72.50
81895;DHT22;71358;45.642;13.758;2023-10-09T12:46:22;25.00;72.60
81895;DHT22;71358;45.642;13.758;2023-10-09T12:49:09;25.00;72.60
81895;DHT22;71358;45.642;13.758;2023-10-09T12:51:55;25.00;72.70
81895;DHT22;71358;45.642;13.758;2023-10-09T12:54:40;25.00;72.80
81895;DHT22;71358;45.642;13.758;2023-10-09T12:57:26;25.10;72.90
81895;DHT22;71358;45.642;13.758;2023-10-09T13:00:10;25.00;72.90
81895;DHT22;71358;45.642;13.758;2023-10-09T13:02:56;25.00;72.80
81895;DHT22;71358;45.642;13.758;2023-10-09T13:05:40;25.10;72.90
81895;DHT22;71358;45.642;13.758;2023-10-09T13:08:36;25.10;72.90
81895;DHT22;71358;45.642;13.758;2023-10-09T13:11:24;25.10;72.80
81895;DHT22;71358;45.642;13.758;2023-10-09T13:14:10;25.10;72.80
81895;DHT22;71358;45.642;13.758;2023-10-09T13:17:07;25.10;72.60
81895;DHT22;71358;45.642;13.758;2023-10-09T13:19:54;25.10;72.50
81895;DHT22;71358;45.642;13.758;2023-10-09T13:22:40;25.10;72.50
81895;DHT22;71358;45.642;13.758;2023-10-09T13:25:25;25.10;72.60
81895;DHT22;71358;45.642;13.758;2023-10-09T13:28:16;25.10;72.70
81895;DHT22;71358;45.642;13.758;2023-10-09T13:31:05;25.00;72.50
81895;DHT22;71358;45.642;13.758;2023-10-09T13:33:49;25.10;72.40
81895;DHT22;71358;45.642;13.758;2023-10-09T13:36:36;25.10;72.70
81895;DHT22;71358;45.642;13.758;2023-10-09T13:39:21;25.00;72.70
81895;DHT22;71358;45.642;13.758;2023-10-09T13:42:08;25.00;72.90
81895;DHT22;71358;45.642;13.758;2023-10-09T13:44:54;25.00;73.00
81895;DHT22;71358;45.642;13.758;2023-10-09T13:47:38;25.00;73.00
81895;DHT22;71358;45.642;13.758;2023-10-09T13:50:24;25.10;73.10
81895;DHT22;71358;45.642;13.758;2023-10-09T13:53:13;25.10;73.20
81895;DHT22;71358;45.642;13.758;2023-10-09T13:55:59;25.00;73.20
81895;DHT22;71358;45.642;13.758;2023-10-09T13:58:48;25.00;73.10
81895;DHT22;71358;45.642;13.758;2023-10-09T14:01:34;25.10;73.10
81895;DHT22;71358;45.642;13.758;2023-10-09T14:04:19;25.10;73.20
81895;DHT22;71358;45.642;13.758;2023-10-09T14:07:03;25.10;73.20
81895;DHT22;71358;45.642;13.758;2023-10-09T14:09:50;25.10;73.20
81895;DHT22;71358;45.642;13.758;2023-10-09T14:12:40;25.10;73.20
81895;DHT22;71358;45.642;13.758;2023-10-09T14:15:27;25.10;73.30
81895;DHT22;71358;45.642;13.758;2023-10-09T14:18:12;25.00;73.20
81895;DHT22;71358;45.642;13.758;2023-10-09T14:21:00;25.00;74.00
81895;DHT22;71358;45.642;13.758;2023-10-09T14:23:48;25.00;73.30
81895;DHT22;71358;45.642;13.758;2023-10-09T14:26:32;25.00;73.40
81895;DHT22;71358;45.642;13.758;2023-10-09T14:29:18;25.00;73.40
81895;DHT22;71358;45.642;13.758;2023-10-09T14:32:03;25.00;73.60
81895;DHT22;71358;45.642;13.758;2023-10-09T14:34:47;25.00;73.70
81895;DHT22;71358;45.642;13.758;2023-10-09T14:37:35;25.00;73.80
81895;DHT22;71358;45.642;13.758;2023-10-09T14:40:20;25.00;73.90
81895;DHT22;71358;45.642;13.758;2023-10-09T14:43:04;25.00;74.00
81895;DHT22;71358;45.642;13.758;2023-10-09T14:45:52;25.00;73.90
81895;DHT22;71358;45.642;13.758;2023-10-09T14:48:38;25.00;74.00
81895;DHT22;71358;45.642;13.758;2023-10-09T14:51:23;25.00;74.10
81895;DHT22;71358;45.642;13.758;2023-10-09T14:54:11;25.00;74.20
81895;DHT22;71358;45.642;13.758;2023-10-09T14:56:59;24.90;74.40
81895;DHT22;71358;45.642;13.758;2023-10-09T14:59:45;24.90;74.50
81895;DHT22;71358;45.642;13.758;2023-10-09T15:02:30;24.90;74.80
81895;DHT22;71358;45.642;13.758;2023-10-09T15:05:16;24.90;74.90
81895;DHT22;71358;45.642;13.758;2023-10-09T15:08:00;24.90;75.00
81895;DHT22;71358;45.642;13.758;2023-10-09T15:10:51;24.90;75.00
81895;DHT22;71358;45.642;13.758;2023-10-09T15:13:40;24.90;75.20
81895;DHT22;71358;45.642;13.758;2023-10-09T15:16:25;24.90;75.30
81895;DHT22;71358;45.642;13.758;2023-10-09T15:19:14;24.90;75.30
81895;DHT22;71358;45.642;13.758;2023-10-09T15:22:00;24.90;75.30
81895;DHT22;71358;45.642;13.758;2023-10-09T15:24:45;24.90;75.20
81895;DHT22;71358;45.642;13.758;2023-10-09T15:27:29;25.00;74.90
81895;DHT22;71358;45.642;13.758;2023-10-09T15:30:14;25.00;74.50
81895;DHT22;71358;45.642;13.758;2023-10-09T15:33:00;25.00;74.40
81895;DHT22;71358;45.642;13.758;2023-10-09T15:35:46;25.00;74.10
81895;DHT22;71358;45.642;13.758;2023-10-09T15:38:36;25.00;73.90
81895;DHT22;71358;45.642;13.758;2023-10-09T15:41:21;25.10;73.80
81895;DHT22;71358;45.642;13.758;2023-10-09T15:44:06;25.10;73.40
81895;DHT22;71358;45.642;13.758;2023-10-09T15:46:51;25.10;73.20
81895;DHT22;71358;45.642;13.758;2023-10-09T15:49:43;25.10;73.10
81895;DHT22;71358;45.642;13.758;2023-10-09T15:52:27;25.10;73.10
81895;DHT22;71358;45.642;13.758;2023-10-09T15:55:12;25.10;73.10
81895;DHT22;71358;45.642;13.758;2023-10-09T15:57:59;25.10;73.00
81895;DHT22;71358;45.642;13.758;2023-10-09T16:00:44;25.10;72.70
81895;DHT22;71358;45.642;13.758;2023-10-09T16:03:29;25.10;72.30
81895;DHT22;71358;45.642;13.758;2023-10-09T16:06:15;25.10;72.00
81895;DHT22;71358;45.642;13.758;2023-10-09T16:09:00;25.20;71.70
81895;DHT22;71358;45.642;13.758;2023-10-09T16:11:44;25.10;71.50
81895;DHT22;71358;45.642;13.758;2023-10-09T16:14:29;25.20;71.60
81895;DHT22;71358;45.642;13.758;2023-10-09T16:17:14;25.20;71.60
81895;DHT22;71358;45.642;13.758;2023-10-09T16:20:00;25.20;71.40
81895;DHT22;71358;45.642;13.758;2023-10-09T16:22:45;25.20;71.40
81895;DHT22;71358;45.642;13.758;2023-10-09T16:25:30;25.20;71.30
81895;DHT22;71358;45.642;13.758;2023-10-09T16:28:14;25.20;71.10
81895;DHT22;71358;45.642;13.758;2023-10-09T16:31:00;25.20;71.00
81895;DHT22;71358;45.642;13.758;2023-10-09T16:33:47;25.20;70.50
81895;DHT22;71358;45.642;13.758;2023-10-09T16:36:31;25.20;70.10
81895;DHT22;71358;45.642;13.758;2023-10-09T16:39:16;25.20;69.80
81895;DHT22;71358;45.642;13.758;2023-10-09T16:42:06;25.20;69.60
81895;DHT22;71358;45.642;13.758;2023-10-09T16:44:53;25.20;69.30
81895;DHT22;71358;45.642;13.758;2023-10-09T16:47:40;25.20;69.80
81895;DHT22;71358;45.642;13.758;2023-10-09T16:50:24;25.30;68.90
81895;DHT22;71358;45.642;13.758;2023-10-09T16:53:12;25.30;68.70
81895;DHT22;71358;45.642;13.758;2023-10-09T16:55:57;25.20;68.50
81895;DHT22;71358;45.642;13.758;2023-10-09T16:58:44;25.30;68.40
81895;DHT22;71358;45.642;13.758;2023-10-09T17:01:29;25.30;68.20
81895;DHT22;71358;45.642;13.758;2023-10-09T17:04:15;25.30;68.10
81895;DHT22;71358;45.642;13.758;2023-10-09T17:07:07;25.30;67.80
81895;DHT22;71358;45.642;13.758;2023-10-09T17:09:58;25.30;67.60
81895;DHT22;71358;45.642;13.758;2023-10-09T17:12:43;25.30;67.50
81895;DHT22;71358;45.642;13.758;2023-10-09T17:15:36;25.30;67.40
81895;DHT22;71358;45.642;13.758;2023-10-09T17:18:24;25.30;67.20
81895;DHT22;71358;45.642;13.758;2023-10-09T17:21:09;25.30;67.00
81895;DHT22;71358;45.642;13.758;2023-10-09T17:23:55;25.30;67.00
81895;DHT22;71358;45.642;13.758;2023-10-09T17:26:42;25.30;66.90
81895;DHT22;71358;45.642;13.758;2023-10-09T17:29:30;25.30;66.80
81895;DHT22;71358;45.642;13.758;2023-10-09T17:32:25;25.30;66.60
81895;DHT22;71358;45.642;13.758;2023-10-09T17:35:09;25.30;66.30
81895;DHT22;71358;45.642;13.758;2023-10-09T17:37:54;25.30;66.10
81895;DHT22;71358;45.642;13.758;2023-10-09T17:40:50;25.30;65.80